sensor_id;sensor_type;location;lat;lon;timestamp;P1;durP1;ratioP1;P2;durP2;ratioP2
11582;SDS011;34299;50.820;4.548;2023-04-25T00:01:57;8.30;;;2.57;;
11582;SDS011;34299;50.820;4.548;2023-04-25T00:04:24;6.80;;;2.70;;
11582;SDS011;34299;50.820;4.548;2023-04-25T00:06:52;9.67;;;2.33;;
11582;SDS011;34299;50.820;4.548;2023-04-25T00:09:20;7.50;;;2.30;;
11582;SDS011;34299;50.820;4.548;2023-04-25T00:11:48;7.47;;;3.03;;
11582;SDS011;34299;50.820;4.548;2023-04-25T00:14:16;6.83;;;2.47;;
11582;SDS011;34299;50.820;4.548;2023-04-25T00:16:43;9.50;;;3.10;;
11582;SDS011;34299;50.820;4.548;2023-04-25T00:19:11;7.33;;;2.77;;
11582;SDS011;34299;50.820;4.548;2023-04-25T00:21:38;7.80;;;2.43;;
11582;SDS011;34299;50.820;4.548;2023-04-25T00:24:06;7.27;;;2.93;;
11582;SDS011;34299;50.820;4.548;2023-04-25T00:26:33;11.47;;;3.17;;
11582;SDS011;34299;50.820;4.548;2023-04-25T00:29:01;11.50;;;3.10;;
11582;SDS011;34299;50.820;4.548;2023-04-25T00:31:29;7.13;;;2.93;;
11582;SDS011;34299;50.820;4.548;2023-04-25T00:33:57;6.27;;;2.97;;
11582;SDS011;34299;50.820;4.548;2023-04-25T00:36:24;9.33;;;3.10;;
11582;SDS011;34299;50.820;4.548;2023-04-25T00:38:52;6.13;;;2.43;;
11582;SDS011;34299;50.820;4.548;2023-04-25T00:41:20;9.07;;;2.70;;
11582;SDS011;34299;50.820;4.548;2023-04-25T00:43:48;8.70;;;2.50;;
11582;SDS011;34299;50.820;4.548;2023-04-25T00:46:16;7.07;;;2.30;;
11582;SDS011;34299;50.820;4.548;2023-04-25T00:48:44;8.23;;;2.33;;
11582;SDS011;34299;50.820;4.548;2023-04-25T00:51:13;7.80;;;2.73;;
11582;SDS011;34299;50.820;4.548;2023-04-25T00:53:40;8.33;;;3.10;;
11582;SDS011;34299;50.820;4.548;2023-04-25T00:56:08;8.03;;;2.80;;
11582;SDS011;34299;50.820;4.548;2023-04-25T00:58:35;10.27;;;2.93;;
11582;SDS011;34299;50.820;4.548;2023-04-25T01:01:03;8.43;;;2.27;;
11582;SDS011;34299;50.820;4.548;2023-04-25T01:03:31;9.77;;;2.70;;
11582;SDS011;34299;50.820;4.548;2023-04-25T01:06:01;7.13;;;2.67;;
11582;SDS011;34299;50.820;4.548;2023-04-25T01:08:28;5.27;;;2.43;;
11582;SDS011;34299;50.820;4.548;2023-04-25T01:10:56;7.97;;;2.43;;
11582;SDS011;34299;50.820;4.548;2023-04-25T01:13:23;9.53;;;3.07;;
11582;SDS011;34299;50.820;4.548;2023-04-25T01:15:50;7.10;;;2.93;;
11582;SDS011;34299;50.820;4.548;2023-04-25T01:18:18;9.17;;;3.37;;
11582;SDS011;34299;50.820;4.548;2023-04-25T01:20:46;6.30;;;2.77;;
11582;SDS011;34299;50.820;4.548;2023-04-25T01:23:14;8.23;;;2.90;;
11582;SDS011;34299;50.820;4.548;2023-04-25T01:25:42;10.13;;;2.50;;
11582;SDS011;34299;50.820;4.548;2023-04-25T01:28:09;8.37;;;2.93;;
11582;SDS011;34299;50.820;4.548;2023-04-25T01:30:37;8.70;;;3.17;;
11582;SDS011;34299;50.820;4.548;2023-04-25T01:33:05;10.33;;;3.50;;
11582;SDS011;34299;50.820;4.548;2023-04-25T01:35:32;12.00;;;4.10;;
11582;SDS011;34299;50.820;4.548;2023-04-25T01:38:00;10.00;;;3.77;;
11582;SDS011;34299;50.820;4.548;2023-04-25T01:40:28;11.00;;;3.07;;
11582;SDS011;34299;50.820;4.548;2023-04-25T01:42:56;8.17;;;3.03;;
11582;SDS011;34299;50.820;4.548;2023-04-25T01:45:23;8.27;;;3.20;;
11582;SDS011;34299;50.820;4.548;2023-04-25T01:47:50;5.80;;;2.47;;
11582;SDS011;34299;50.820;4.548;2023-04-25T01:50:18;7.30;;;3.53;;
11582;SDS011;34299;50.820;4.548;2023-04-25T01:52:45;12.40;;;3.23;;
11582;SDS011;34299;50.820;4.548;2023-04-25T01:55:12;7.63;;;3.23;;
11582;SDS011;34299;50.820;4.548;2023-04-25T01:57:41;10.00;;;3.17;;
11582;SDS011;34299;50.820;4.548;2023-04-25T02:00:09;7.67;;;3.20;;
11582;SDS011;34299;50.820;4.548;2023-04-25T02:02:36;9.43;;;2.57;;
11582;SDS011;34299;50.820;4.548;2023-04-25T02:05:03;9.23;;;3.30;;
11582;SDS011;34299;50.820;4.548;2023-04-25T02:07:31;10.13;;;3.40;;
11582;SDS011;34299;50.820;4.548;2023-04-25T02:09:58;11.23;;;3.47;;
11582;SDS011;34299;50.820;4.548;2023-04-25T02:12:26;10.97;;;2.93;;
11582;SDS011;34299;50.820;4.548;2023-04-25T02:14:55;15.20;;;2.97;;
11582;SDS011;34299;50.820;4.548;2023-04-25T02:17:22;8.57;;;2.50;;
11582;SDS011;34299;50.820;4.548;2023-04-25T02:19:49;12.40;;;3.53;;
11582;SDS011;34299;50.820;4.548;2023-04-25T02:22:16;8.57;;;2.50;;
11582;SDS011;34299;50.820;4.548;2023-04-25T02:24:44;13.40;;;3.70;;
11582;SDS011;34299;50.820;4.548;2023-04-25T02:27:11;9.80;;;3.37;;
11582;SDS011;34299;50.820;4.548;2023-04-25T02:29:38;4.73;;;2.60;;
11582;SDS011;34299;50.820;4.548;2023-04-25T02:32:07;11.57;;;3.00;;
11582;SDS011;34299;50.820;4.548;2023-04-25T02:34:34;6.47;;;1.90;;
11582;SDS011;34299;50.820;4.548;2023-04-25T02:37:01;6.13;;;2.47;;
11582;SDS011;34299;50.820;4.548;2023-04-25T02:39:29;4.90;;;1.80;;
11582;SDS011;34299;50.820;4.548;2023-04-25T02:41:56;6.30;;;3.10;;
11582;SDS011;34299;50.820;4.548;2023-04-25T02:44:23;3.83;;;1.97;;
11582;SDS011;34299;50.820;4.548;2023-04-25T02:46:50;2.43;;;1.90;;
11582;SDS011;34299;50.820;4.548;2023-04-25T02:49:19;10.10;;;2.70;;
11582;SDS011;34299;50.820;4.548;2023-04-25T02:51:46;7.30;;;3.17;;
11582;SDS011;34299;50.820;4.548;2023-04-25T02:54:13;9.80;;;2.20;;
11582;SDS011;34299;50.820;4.548;2023-04-25T02:56:40;6.47;;;2.50;;
11582;SDS011;34299;50.820;4.548;2023-04-25T02:59:08;7.83;;;3.23;;
11582;SDS011;34299;50.820;4.548;2023-04-25T03:01:35;6.80;;;2.20;;
11582;SDS011;34299;50.820;4.548;2023-04-25T03:04:02;5.50;;;2.50;;
11582;SDS011;34299;50.820;4.548;2023-04-25T03:06:31;8.00;;;2.60;;
11582;SDS011;34299;50.820;4.548;2023-04-25T03:08:58;7.63;;;2.77;;
11582;SDS011;34299;50.820;4.548;2023-04-25T03:11:25;5.03;;;2.83;;
11582;SDS011;34299;50.820;4.548;2023-04-25T03:13:53;6.20;;;2.90;;
11582;SDS011;34299;50.820;4.548;2023-04-25T03:16:20;3.53;;;2.27;;
11582;SDS011;34299;50.820;4.548;2023-04-25T03:18:47;4.53;;;2.40;;
11582;SDS011;34299;50.820;4.548;2023-04-25T03:21:15;5.63;;;2.10;;
11582;SDS011;34299;50.820;4.548;2023-04-25T03:23:44;5.40;;;2.43;;
11582;SDS011;34299;50.820;4.548;2023-04-25T03:26:11;4.10;;;2.80;;
11582;SDS011;34299;50.820;4.548;2023-04-25T03:28:38;6.70;;;2.73;;
11582;SDS011;34299;50.820;4.548;2023-04-25T03:31:06;6.30;;;3.20;;
11582;SDS011;34299;50.820;4.548;2023-04-25T03:33:33;5.20;;;2.40;;
11582;SDS011;34299;50.820;4.548;2023-04-25T03:36:00;2.83;;;2.20;;
11582;SDS011;34299;50.820;4.548;2023-04-25T03:38:27;10.10;;;2.60;;
11582;SDS011;34299;50.820;4.548;2023-04-25T03:40:56;3.67;;;3.10;;
11582;SDS011;34299;50.820;4.548;2023-04-25T03:43:23;11.60;;;3.13;;
11582;SDS011;34299;50.820;4.548;2023-04-25T03:45:50;5.87;;;2.93;;
11582;SDS011;34299;50.820;4.548;2023-04-25T03:48:17;5.20;;;2.40;;
11582;SDS011;34299;50.820;4.548;2023-04-25T03:50:46;4.17;;;2.97;;
11582;SDS011;34299;50.820;4.548;2023-04-25T03:53:13;6.83;;;2.40;;
11582;SDS011;34299;50.820;4.548;2023-04-25T03:55:40;12.53;;;2.67;;
11582;SDS011;34299;50.820;4.548;2023-04-25T03:58:09;6.10;;;3.30;;
11582;SDS011;34299;50.820;4.548;2023-04-25T04:00:36;3.97;;;2.33;;
11582;SDS011;34299;50.820;4.548;2023-04-25T04:03:03;4.23;;;2.33;;
11582;SDS011;34299;50.820;4.548;2023-04-25T04:05:31;2.23;;;1.47;;
11582;SDS011;34299;50.820;4.548;2023-04-25T04:07:58;10.83;;;3.80;;
11582;SDS011;34299;50.820;4.548;2023-04-25T04:10:25;9.50;;;3.37;;
11582;SDS011;34299;50.820;4.548;2023-04-25T04:12:52;8.83;;;4.07;;
11582;SDS011;34299;50.820;4.548;2023-04-25T04:15:21;7.23;;;3.17;;
11582;SDS011;34299;50.820;4.548;2023-04-25T04:17:48;10.03;;;3.97;;
11582;SDS011;34299;50.820;4.548;2023-04-25T04:20:16;12.33;;;3.73;;
11582;SDS011;34299;50.820;4.548;2023-04-25T04:22:43;9.43;;;3.40;;
11582;SDS011;34299;50.820;4.548;2023-04-25T04:25:10;7.70;;;3.00;;
11582;SDS011;34299;50.820;4.548;2023-04-25T04:27:37;10.87;;;3.40;;
11582;SDS011;34299;50.820;4.548;2023-04-25T04:30:06;13.83;;;3.63;;
11582;SDS011;34299;50.820;4.548;2023-04-25T04:32:34;9.43;;;3.23;;
11582;SDS011;34299;50.820;4.548;2023-04-25T04:35:02;8.00;;;3.10;;
11582;SDS011;34299;50.820;4.548;2023-04-25T04:37:31;6.13;;;2.77;;
11582;SDS011;34299;50.820;4.548;2023-04-25T04:39:58;8.77;;;3.00;;
11582;SDS011;34299;50.820;4.548;2023-04-25T04:42:30;7.07;;;2.90;;
11582;SDS011;34299;50.820;4.548;2023-04-25T04:44:57;8.43;;;3.10;;
11582;SDS011;34299;50.820;4.548;2023-04-25T04:47:26;6.77;;;2.70;;
11582;SDS011;34299;50.820;4.548;2023-04-25T04:49:58;4.37;;;3.17;;
11582;SDS011;34299;50.820;4.548;2023-04-25T04:52:26;8.50;;;3.50;;
11582;SDS011;34299;50.820;4.548;2023-04-25T04:54:53;9.73;;;3.73;;
11582;SDS011;34299;50.820;4.548;2023-04-25T04:57:20;8.07;;;3.73;;
11582;SDS011;34299;50.820;4.548;2023-04-25T04:59:47;7.53;;;3.60;;
11582;SDS011;34299;50.820;4.548;2023-04-25T05:02:15;8.20;;;2.67;;
11582;SDS011;34299;50.820;4.548;2023-04-25T05:04:42;9.50;;;1.97;;
11582;SDS011;34299;50.820;4.548;2023-04-25T05:07:11;3.70;;;1.87;;
11582;SDS011;34299;50.820;4.548;2023-04-25T05:09:38;7.33;;;2.40;;
11582;SDS011;34299;50.820;4.548;2023-04-25T05:12:06;6.70;;;2.00;;
11582;SDS011;34299;50.820;4.548;2023-04-25T05:14:33;3.70;;;1.80;;
11582;SDS011;34299;50.820;4.548;2023-04-25T05:17:00;6.80;;;2.10;;
11582;SDS011;34299;50.820;4.548;2023-04-25T05:19:29;11.83;;;2.93;;
11582;SDS011;34299;50.820;4.548;2023-04-25T05:21:56;5.37;;;2.10;;
11582;SDS011;34299;50.820;4.548;2023-04-25T05:24:25;6.20;;;2.60;;
11582;SDS011;34299;50.820;4.548;2023-04-25T05:26:52;6.90;;;2.80;;
11582;SDS011;34299;50.820;4.548;2023-04-25T05:29:19;7.83;;;2.70;;
11582;SDS011;34299;50.820;4.548;2023-04-25T05:31:47;4.80;;;2.53;;
11582;SDS011;34299;50.820;4.548;2023-04-25T05:34:14;10.57;;;2.57;;
11582;SDS011;34299;50.820;4.548;2023-04-25T05:36:41;10.00;;;4.07;;
11582;SDS011;34299;50.820;4.548;2023-04-25T05:39:08;8.30;;;3.13;;
11582;SDS011;34299;50.820;4.548;2023-04-25T05:41:37;9.47;;;3.10;;
11582;SDS011;34299;50.820;4.548;2023-04-25T05:44:04;10.13;;;2.90;;
11582;SDS011;34299;50.820;4.548;2023-04-25T05:46:32;8.47;;;2.50;;
11582;SDS011;34299;50.820;4.548;2023-04-25T05:48:59;7.57;;;3.27;;
11582;SDS011;34299;50.820;4.548;2023-04-25T05:51:26;4.33;;;2.23;;
11582;SDS011;34299;50.820;4.548;2023-04-25T05:53:53;7.57;;;4.10;;
11582;SDS011;34299;50.820;4.548;2023-04-25T05:56:20;11.17;;;2.83;;
11582;SDS011;34299;50.820;4.548;2023-04-25T05:58:49;5.90;;;2.83;;
11582;SDS011;34299;50.820;4.548;2023-04-25T06:01:16;5.33;;;2.63;;
11582;SDS011;34299;50.820;4.548;2023-04-25T06:03:44;9.23;;;3.80;;
11582;SDS011;34299;50.820;4.548;2023-04-25T06:06:11;6.47;;;2.87;;
11582;SDS011;34299;50.820;4.548;2023-04-25T06:08:38;12.27;;;3.57;;
11582;SDS011;34299;50.820;4.548;2023-04-25T06:11:05;6.67;;;2.53;;
11582;SDS011;34299;50.820;4.548;2023-04-25T06:13:33;5.93;;;3.20;;
11582;SDS011;34299;50.820;4.548;2023-04-25T06:16:01;5.83;;;3.30;;
11582;SDS011;34299;50.820;4.548;2023-04-25T06:18:29;11.87;;;3.60;;
11582;SDS011;34299;50.820;4.548;2023-04-25T06:20:56;5.77;;;2.50;;
11582;SDS011;34299;50.820;4.548;2023-04-25T06:23:24;7.83;;;2.83;;
11582;SDS011;34299;50.820;4.548;2023-04-25T06:25:51;12.43;;;2.80;;
11582;SDS011;34299;50.820;4.548;2023-04-25T06:28:18;5.10;;;2.60;;
11582;SDS011;34299;50.820;4.548;2023-04-25T06:30:47;5.70;;;3.13;;
11582;SDS011;34299;50.820;4.548;2023-04-25T06:33:15;8.57;;;2.97;;
11582;SDS011;34299;50.820;4.548;2023-04-25T06:35:42;5.13;;;2.97;;
11582;SDS011;34299;50.820;4.548;2023-04-25T06:38:10;9.53;;;3.93;;
11582;SDS011;34299;50.820;4.548;2023-04-25T06:40:37;6.10;;;3.43;;
11582;SDS011;34299;50.820;4.548;2023-04-25T06:43:05;6.87;;;3.23;;
11582;SDS011;34299;50.820;4.548;2023-04-25T06:45:32;6.60;;;3.47;;
11582;SDS011;34299;50.820;4.548;2023-04-25T06:47:59;14.40;;;3.63;;
11582;SDS011;34299;50.820;4.548;2023-04-25T06:50:28;7.43;;;3.50;;
11582;SDS011;34299;50.820;4.548;2023-04-25T06:52:55;12.00;;;4.03;;
11582;SDS011;34299;50.820;4.548;2023-04-25T06:55:23;7.73;;;3.77;;
11582;SDS011;34299;50.820;4.548;2023-04-25T06:57:50;8.83;;;4.30;;
11582;SDS011;34299;50.820;4.548;2023-04-25T07:00:17;10.57;;;4.17;;
11582;SDS011;34299;50.820;4.548;2023-04-25T07:02:45;8.77;;;3.73;;
11582;SDS011;34299;50.820;4.548;2023-04-25T07:05:12;7.73;;;3.30;;
11582;SDS011;34299;50.820;4.548;2023-04-25T07:07:41;5.80;;;3.83;;
11582;SDS011;34299;50.820;4.548;2023-04-25T07:10:08;7.07;;;3.90;;
11582;SDS011;34299;50.820;4.548;2023-04-25T07:12:35;7.90;;;3.70;;
11582;SDS011;34299;50.820;4.548;2023-04-25T07:15:03;7.63;;;3.63;;
11582;SDS011;34299;50.820;4.548;2023-04-25T07:17:31;4.87;;;3.10;;
11582;SDS011;34299;50.820;4.548;2023-04-25T07:19:59;7.70;;;3.20;;
11582;SDS011;34299;50.820;4.548;2023-04-25T07:22:26;9.73;;;4.13;;
11582;SDS011;34299;50.820;4.548;2023-04-25T07:24:55;6.70;;;3.90;;
11582;SDS011;34299;50.820;4.548;2023-04-25T07:27:22;7.53;;;3.63;;
11582;SDS011;34299;50.820;4.548;2023-04-25T07:29:50;8.03;;;4.23;;
11582;SDS011;34299;50.820;4.548;2023-04-25T07:32:17;7.30;;;3.73;;
11582;SDS011;34299;50.820;4.548;2023-04-25T07:34:44;9.27;;;3.30;;
11582;SDS011;34299;50.820;4.548;2023-04-25T07:37:12;7.53;;;3.83;;
11582;SDS011;34299;50.820;4.548;2023-04-25T07:39:39;11.67;;;4.40;;
11582;SDS011;34299;50.820;4.548;2023-04-25T07:42:08;10.33;;;4.00;;
11582;SDS011;34299;50.820;4.548;2023-04-25T07:44:35;9.87;;;3.50;;
11582;SDS011;34299;50.820;4.548;2023-04-25T07:47:04;5.47;;;3.50;;
11582;SDS011;34299;50.820;4.548;2023-04-25T07:49:32;14.87;;;4.17;;
11582;SDS011;34299;50.820;4.548;2023-04-25T07:51:59;8.07;;;4.77;;
11582;SDS011;34299;50.820;4.548;2023-04-25T07:54:27;12.03;;;4.87;;
11582;SDS011;34299;50.820;4.548;2023-04-25T07:56:54;7.67;;;3.60;;
11582;SDS011;34299;50.820;4.548;2023-04-25T07:59:23;10.43;;;3.60;;
11582;SDS011;34299;50.820;4.548;2023-04-25T08:01:50;7.23;;;3.77;;
11582;SDS011;34299;50.820;4.548;2023-04-25T08:04:18;7.13;;;3.70;;
11582;SDS011;34299;50.820;4.548;2023-04-25T08:06:45;8.60;;;2.70;;
11582;SDS011;34299;50.820;4.548;2023-04-25T08:09:13;7.73;;;2.70;;
11582;SDS011;34299;50.820;4.548;2023-04-25T08:11:41;4.20;;;2.30;;
11582;SDS011;34299;50.820;4.548;2023-04-25T08:14:09;6.20;;;2.33;;
11582;SDS011;34299;50.820;4.548;2023-04-25T08:16:37;7.03;;;2.57;;
11582;SDS011;34299;50.820;4.548;2023-04-25T08:19:05;7.03;;;2.40;;
11582;SDS011;34299;50.820;4.548;2023-04-25T08:21:32;7.50;;;2.80;;
11582;SDS011;34299;50.820;4.548;2023-04-25T08:23:59;4.43;;;2.23;;
11582;SDS011;34299;50.820;4.548;2023-04-25T08:26:27;12.23;;;2.80;;
11582;SDS011;34299;50.820;4.548;2023-04-25T08:28:55;8.10;;;2.80;;
11582;SDS011;34299;50.820;4.548;2023-04-25T08:31:22;5.53;;;2.20;;
11582;SDS011;34299;50.820;4.548;2023-04-25T08:33:51;6.07;;;2.00;;
11582;SDS011;34299;50.820;4.548;2023-04-25T08:36:18;6.47;;;2.40;;
11582;SDS011;34299;50.820;4.548;2023-04-25T08:38:45;7.37;;;2.20;;
11582;SDS011;34299;50.820;4.548;2023-04-25T08:41:12;4.93;;;2.43;;
11582;SDS011;34299;50.820;4.548;2023-04-25T08:43:41;2.17;;;2.03;;
11582;SDS011;34299;50.820;4.548;2023-04-25T08:46:10;5.27;;;2.23;;
11582;SDS011;34299;50.820;4.548;2023-04-25T08:48:38;7.80;;;3.17;;
11582;SDS011;34299;50.820;4.548;2023-04-25T08:51:08;6.83;;;2.50;;
11582;SDS011;34299;50.820;4.548;2023-04-25T08:53:37;10.37;;;3.03;;
11582;SDS011;34299;50.820;4.548;2023-04-25T08:56:07;7.60;;;2.77;;
11582;SDS011;34299;50.820;4.548;2023-04-25T08:58:35;10.10;;;2.97;;
11582;SDS011;34299;50.820;4.548;2023-04-25T09:01:03;9.03;;;3.10;;
11582;SDS011;34299;50.820;4.548;2023-04-25T09:03:30;5.77;;;2.43;;
11582;SDS011;34299;50.820;4.548;2023-04-25T09:05:57;4.80;;;2.50;;
11582;SDS011;34299;50.820;4.548;2023-04-25T09:08:26;9.50;;;2.67;;
11582;SDS011;34299;50.820;4.548;2023-04-25T09:10:53;5.87;;;2.53;;
11582;SDS011;34299;50.820;4.548;2023-04-25T09:13:24;3.23;;;2.40;;
11582;SDS011;34299;50.820;4.548;2023-04-25T09:15:52;4.43;;;2.30;;
11582;SDS011;34299;50.820;4.548;2023-04-25T09:18:23;10.67;;;2.60;;
11582;SDS011;34299;50.820;4.548;2023-04-25T09:20:51;6.27;;;2.70;;
11582;SDS011;34299;50.820;4.548;2023-04-25T09:23:19;6.37;;;2.53;;
11582;SDS011;34299;50.820;4.548;2023-04-25T09:25:48;5.27;;;2.40;;
11582;SDS011;34299;50.820;4.548;2023-04-25T09:28:15;6.07;;;2.60;;
11582;SDS011;34299;50.820;4.548;2023-04-25T09:30:43;5.77;;;2.50;;
11582;SDS011;34299;50.820;4.548;2023-04-25T09:33:12;5.50;;;2.40;;
11582;SDS011;34299;50.820;4.548;2023-04-25T09:35:41;6.03;;;2.53;;
11582;SDS011;34299;50.820;4.548;2023-04-25T09:38:09;3.93;;;2.63;;
11582;SDS011;34299;50.820;4.548;2023-04-25T09:40:40;4.83;;;2.47;;
11582;SDS011;34299;50.820;4.548;2023-04-25T09:43:13;7.43;;;2.10;;
11582;SDS011;34299;50.820;4.548;2023-04-25T09:45:45;7.33;;;2.00;;
11582;SDS011;34299;50.820;4.548;2023-04-25T09:48:15;3.43;;;1.80;;
11582;SDS011;34299;50.820;4.548;2023-04-25T09:50:43;7.40;;;1.73;;
11582;SDS011;34299;50.820;4.548;2023-04-25T09:53:10;2.37;;;1.47;;
11582;SDS011;34299;50.820;4.548;2023-04-25T09:55:38;1.97;;;1.53;;
11582;SDS011;34299;50.820;4.548;2023-04-25T09:58:05;6.00;;;2.10;;
11582;SDS011;34299;50.820;4.548;2023-04-25T10:00:34;2.33;;;1.33;;
11582;SDS011;34299;50.820;4.548;2023-04-25T10:03:01;4.47;;;1.73;;
11582;SDS011;34299;50.820;4.548;2023-04-25T10:05:30;6.83;;;1.80;;
11582;SDS011;34299;50.820;4.548;2023-04-25T10:07:59;5.63;;;2.30;;
11582;SDS011;34299;50.820;4.548;2023-04-25T10:10:29;4.37;;;2.07;;
11582;SDS011;34299;50.820;4.548;2023-04-25T10:13:01;4.17;;;2.10;;
11582;SDS011;34299;50.820;4.548;2023-04-25T10:15:28;3.37;;;2.03;;
11582;SDS011;34299;50.820;4.548;2023-04-25T10:17:57;5.73;;;2.43;;
11582;SDS011;34299;50.820;4.548;2023-04-25T10:20:26;5.93;;;2.00;;
11582;SDS011;34299;50.820;4.548;2023-04-25T10:22:53;7.97;;;2.37;;
11582;SDS011;34299;50.820;4.548;2023-04-25T10:25:21;3.80;;;2.03;;
11582;SDS011;34299;50.820;4.548;2023-04-25T10:27:49;5.07;;;2.43;;
11582;SDS011;34299;50.820;4.548;2023-04-25T10:30:17;2.00;;;1.57;;
11582;SDS011;34299;50.820;4.548;2023-04-25T10:32:45;4.70;;;2.10;;
11582;SDS011;34299;50.820;4.548;2023-04-25T10:35:15;2.93;;;1.73;;
11582;SDS011;34299;50.820;4.548;2023-04-25T10:40:27;3.70;;;2.13;;
11582;SDS011;34299;50.820;4.548;2023-04-25T10:42:55;4.13;;;1.93;;
11582;SDS011;34299;50.820;4.548;2023-04-25T10:45:22;5.77;;;1.57;;
11582;SDS011;34299;50.820;4.548;2023-04-25T10:47:49;8.03;;;1.53;;
11582;SDS011;34299;50.820;4.548;2023-04-25T10:50:18;2.17;;;1.33;;
11582;SDS011;34299;50.820;4.548;2023-04-25T10:52:45;1.77;;;1.43;;
11582;SDS011;34299;50.820;4.548;2023-04-25T10:55:12;6.03;;;1.83;;
11582;SDS011;34299;50.820;4.548;2023-04-25T10:57:40;5.63;;;1.67;;
11582;SDS011;34299;50.820;4.548;2023-04-25T11:00:10;3.63;;;1.20;;
11582;SDS011;34299;50.820;4.548;2023-04-25T11:02:40;3.87;;;1.40;;
11582;SDS011;34299;50.820;4.548;2023-04-25T11:05:08;3.10;;;1.53;;
11582;SDS011;34299;50.820;4.548;2023-04-25T11:07:39;2.97;;;1.37;;
11582;SDS011;34299;50.820;4.548;2023-04-25T11:10:09;3.20;;;1.40;;
11582;SDS011;34299;50.820;4.548;2023-04-25T11:12:36;3.17;;;1.37;;
11582;SDS011;34299;50.820;4.548;2023-04-25T11:15:04;3.43;;;1.47;;
11582;SDS011;34299;50.820;4.548;2023-04-25T11:17:32;6.13;;;1.83;;
11582;SDS011;34299;50.820;4.548;2023-04-25T11:19:59;2.57;;;1.63;;
11582;SDS011;34299;50.820;4.548;2023-04-25T11:22:31;3.27;;;1.70;;
11582;SDS011;34299;50.820;4.548;2023-04-25T11:25:00;6.93;;;1.53;;
11582;SDS011;34299;50.820;4.548;2023-04-25T11:27:31;2.47;;;1.90;;
11582;SDS011;34299;50.820;4.548;2023-04-25T11:29:58;4.47;;;1.87;;
11582;SDS011;34299;50.820;4.548;2023-04-25T11:32:25;3.40;;;1.33;;
11582;SDS011;34299;50.820;4.548;2023-04-25T11:34:52;2.37;;;1.20;;
11582;SDS011;34299;50.820;4.548;2023-04-25T11:37:20;3.30;;;1.60;;
11582;SDS011;34299;50.820;4.548;2023-04-25T11:39:47;3.57;;;1.37;;
11582;SDS011;34299;50.820;4.548;2023-04-25T11:42:15;2.17;;;1.70;;
11582;SDS011;34299;50.820;4.548;2023-04-25T11:44:43;2.97;;;1.80;;
11582;SDS011;34299;50.820;4.548;2023-04-25T11:47:10;3.20;;;1.70;;
11582;SDS011;34299;50.820;4.548;2023-04-25T11:49:37;3.40;;;1.43;;
11582;SDS011;34299;50.820;4.548;2023-04-25T11:52:06;4.50;;;1.40;;
11582;SDS011;34299;50.820;4.548;2023-04-25T11:54:35;6.27;;;1.90;;
11582;SDS011;34299;50.820;4.548;2023-04-25T11:57:02;4.97;;;2.63;;
11582;SDS011;34299;50.820;4.548;2023-04-25T11:59:31;3.50;;;1.63;;
11582;SDS011;34299;50.820;4.548;2023-04-25T12:01:58;6.40;;;1.27;;
11582;SDS011;34299;50.820;4.548;2023-04-25T12:04:29;3.70;;;1.77;;
11582;SDS011;34299;50.820;4.548;2023-04-25T12:06:56;4.63;;;1.30;;
11582;SDS011;34299;50.820;4.548;2023-04-25T12:09:29;7.53;;;1.77;;
11582;SDS011;34299;50.820;4.548;2023-04-25T12:11:57;4.03;;;1.00;;
11582;SDS011;34299;50.820;4.548;2023-04-25T12:14:28;5.03;;;1.30;;
11582;SDS011;34299;50.820;4.548;2023-04-25T12:16:57;2.20;;;1.10;;
11582;SDS011;34299;50.820;4.548;2023-04-25T12:19:25;4.40;;;1.37;;
11582;SDS011;34299;50.820;4.548;2023-04-25T12:21:52;8.13;;;1.27;;
11582;SDS011;34299;50.820;4.548;2023-04-25T12:24:21;5.33;;;1.50;;
11582;SDS011;34299;50.820;4.548;2023-04-25T12:26:50;1.93;;;1.07;;
11582;SDS011;34299;50.820;4.548;2023-04-25T12:29:18;1.93;;;1.00;;
11582;SDS011;34299;50.820;4.548;2023-04-25T12:31:46;3.10;;;1.10;;
11582;SDS011;34299;50.820;4.548;2023-04-25T12:34:15;4.10;;;1.37;;
11582;SDS011;34299;50.820;4.548;2023-04-25T12:36:42;2.47;;;1.10;;
11582;SDS011;34299;50.820;4.548;2023-04-25T12:39:13;2.90;;;1.17;;
11582;SDS011;34299;50.820;4.548;2023-04-25T12:41:41;2.67;;;1.13;;
11582;SDS011;34299;50.820;4.548;2023-04-25T12:44:08;0.90;;;0.90;;
11582;SDS011;34299;50.820;4.548;2023-04-25T12:46:35;3.77;;;1.10;;
11582;SDS011;34299;50.820;4.548;2023-04-25T12:49:03;0.87;;;0.80;;
11582;SDS011;34299;50.820;4.548;2023-04-25T12:51:32;1.77;;;0.87;;
11582;SDS011;34299;50.820;4.548;2023-04-25T12:54:00;3.40;;;1.13;;
11582;SDS011;34299;50.820;4.548;2023-04-25T12:56:27;2.97;;;1.27;;
11582;SDS011;34299;50.820;4.548;2023-04-25T12:58:54;1.70;;;0.97;;
11582;SDS011;34299;50.820;4.548;2023-04-25T13:01:22;0.80;;;0.80;;
11582;SDS011;34299;50.820;4.548;2023-04-25T13:03:49;2.17;;;0.93;;
11582;SDS011;34299;50.820;4.548;2023-04-25T13:06:17;2.17;;;0.77;;
11582;SDS011;34299;50.820;4.548;2023-04-25T13:08:46;2.63;;;1.40;;
11582;SDS011;34299;50.820;4.548;2023-04-25T13:11:13;1.30;;;0.90;;
11582;SDS011;34299;50.820;4.548;2023-04-25T13:13:41;2.40;;;0.90;;
11582;SDS011;34299;50.820;4.548;2023-04-25T13:16:08;1.50;;;1.00;;
11582;SDS011;34299;50.820;4.548;2023-04-25T13:18:35;0.83;;;0.83;;
11582;SDS011;34299;50.820;4.548;2023-04-25T13:21:02;1.77;;;1.30;;
11582;SDS011;34299;50.820;4.548;2023-04-25T13:23:30;3.80;;;0.87;;
11582;SDS011;34299;50.820;4.548;2023-04-25T13:25:58;2.73;;;1.03;;
11582;SDS011;34299;50.820;4.548;2023-04-25T13:28:26;4.37;;;1.27;;
11582;SDS011;34299;50.820;4.548;2023-04-25T13:30:53;4.37;;;1.10;;
11582;SDS011;34299;50.820;4.548;2023-04-25T13:33:21;2.93;;;1.00;;
11582;SDS011;34299;50.820;4.548;2023-04-25T13:35:48;2.77;;;0.93;;
11582;SDS011;34299;50.820;4.548;2023-04-25T13:38:19;4.43;;;1.30;;
11582;SDS011;34299;50.820;4.548;2023-04-25T13:40:46;3.43;;;1.10;;
11582;SDS011;34299;50.820;4.548;2023-04-25T13:43:15;1.10;;;1.00;;
11582;SDS011;34299;50.820;4.548;2023-04-25T13:45:42;2.37;;;1.23;;
11582;SDS011;34299;50.820;4.548;2023-04-25T13:48:09;1.33;;;1.10;;
11582;SDS011;34299;50.820;4.548;2023-04-25T13:50:37;2.07;;;0.93;;
11582;SDS011;34299;50.820;4.548;2023-04-25T13:53:04;3.97;;;1.40;;
11582;SDS011;34299;50.820;4.548;2023-04-25T13:55:31;1.13;;;1.03;;
11582;SDS011;34299;50.820;4.548;2023-04-25T13:57:59;1.53;;;1.10;;
11582;SDS011;34299;50.820;4.548;2023-04-25T14:00:33;1.30;;;0.90;;
11582;SDS011;34299;50.820;4.548;2023-04-25T14:03:01;1.27;;;0.93;;
11582;SDS011;34299;50.820;4.548;2023-04-25T14:05:32;2.63;;;1.40;;
11582;SDS011;34299;50.820;4.548;2023-04-25T14:08:02;2.80;;;0.97;;
11582;SDS011;34299;50.820;4.548;2023-04-25T14:10:30;1.20;;;0.80;;
11582;SDS011;34299;50.820;4.548;2023-04-25T14:12:57;2.37;;;0.90;;
11582;SDS011;34299;50.820;4.548;2023-04-25T14:15:25;3.27;;;1.20;;
11582;SDS011;34299;50.820;4.548;2023-04-25T14:17:54;4.03;;;1.13;;
11582;SDS011;34299;50.820;4.548;2023-04-25T14:20:21;2.93;;;1.33;;
11582;SDS011;34299;50.820;4.548;2023-04-25T14:22:49;2.10;;;1.03;;
11582;SDS011;34299;50.820;4.548;2023-04-25T14:25:17;6.80;;;1.20;;
11582;SDS011;34299;50.820;4.548;2023-04-25T14:27:44;1.03;;;0.80;;
11582;SDS011;34299;50.820;4.548;2023-04-25T14:30:14;1.37;;;0.73;;
11582;SDS011;34299;50.820;4.548;2023-04-25T14:32:42;2.90;;;0.70;;
11582;SDS011;34299;50.820;4.548;2023-04-25T14:35:11;3.03;;;1.37;;
11582;SDS011;34299;50.820;4.548;2023-04-25T14:37:38;4.07;;;1.00;;
11582;SDS011;34299;50.820;4.548;2023-04-25T14:40:06;2.03;;;0.83;;
11582;SDS011;34299;50.820;4.548;2023-04-25T14:42:35;3.13;;;0.90;;
11582;SDS011;34299;50.820;4.548;2023-04-25T14:45:02;1.70;;;0.87;;
11582;SDS011;34299;50.820;4.548;2023-04-25T14:47:30;2.13;;;1.07;;
11582;SDS011;34299;50.820;4.548;2023-04-25T14:49:57;2.13;;;1.00;;
11582;SDS011;34299;50.820;4.548;2023-04-25T14:52:25;1.10;;;0.90;;